Flight Track Log - Related Links

Times and Time Zones

All times are in EDT time to prevent confusion due to time zone crossing. See the AAL2007 flight status page for this flight to view local times or setup timezone preferences in your user account.

Time Position Orientation Groundspeed Altitude Reporting Facility
EDT Latitude Longitude Course Direction KTS MPH feet Rate Location/Type
Tue 06:51:42 PM 41.9667 -87.8500 207° Southwest 200 230 2,800  Level Chicago TRACON
Tue 06:52:24 PM 41.9294 -87.8144 145° Southeast 217 250 3,900 1,269 Climbing Chicago Center
Tue 06:53:00 PM 41.7161 -88.1726 201° Southwest  Level Estimated
Tue 06:53:26 PM 41.8597 -87.7836 162° South 256 295 5,000  Level Chicago Center
Tue 06:54:00 PM 41.6274 -88.2607 197° South  Level Estimated
Tue 06:54:28 PM 41.7811 -87.7767 176° South 274 315 6,600  Level Chicago Center
Tue 06:55:00 PM 41.5259 -88.2027 157° South  Level FlightAware Approximate
Tue 06:55:30 PM 41.7167 -87.8303 212° Southwest 287 330 9,500  Level Chicago Center
Tue 06:56:00 PM 41.4376 -88.2913 207° Southwest  Level Estimated
Tue 06:56:32 PM 41.6422 -87.9125 220° Southwest 291 335 12,500  Level Chicago Center
Tue 06:57:34 PM 41.5778 -87.9858 220° Southwest 304 350 15,100 1,839 Climbing Chicago Center
Tue 06:58:36 PM 41.5097 -88.0608 220° Southwest 319 367 16,300 1,645 Climbing Chicago Center
Tue 06:59:38 PM 41.4208 -88.1583 219° Southwest 358 412 18,500 1,920 Climbing Chicago Center
Tue 07:00:41 PM 41.3264 -88.2175 205° Southwest 391 450 20,300 1,680 Climbing Chicago Center
Tue 07:01:43 PM 41.2233 -88.2628 198° South 395 455 22,000 1,548 Climbing Chicago Center
Tue 07:02:45 PM 41.1172 -88.3111 199° South 405 466 23,500 1,500 Climbing Chicago Center
Tue 07:03:47 PM 41.0081 -88.3603 199° South 415 478 25,100 1,742 Climbing Chicago Center
Tue 07:04:49 PM 40.8764 -88.4178 198° South 416 479 27,100 1,452 Climbing Chicago Center
Tue 07:05:51 PM 40.7694 -88.4750 202° Southwest 417 480 28,100 1,210 Climbing Chicago Center
Tue 07:06:53 PM 40.6864 -88.5800 224° Southwest 410 472 29,600 1,210 Climbing Chicago Center
Tue 07:07:55 PM 40.5978 -88.6756 219° Southwest 412 474 30,600 1,065 Climbing Chicago Center
Tue 07:08:57 PM 40.5086 -88.7694 219° Southwest 412 474 31,800 1,104 Climbing Chicago Center
Tue 07:10:00 PM 40.4150 -88.8681 219° Southwest 412 474 32,900 1,056 Climbing Chicago Center
Tue 07:11:02 PM 40.3278 -88.9622 219° Southwest 406 467 34,000 532 Climbing Chicago Center
Tue 07:12:04 PM 40.2219 -89.0728 219° Southwest 402 463 34,000  Level Chicago Center
Tue 07:13:06 PM 40.1325 -89.1672 219° Southwest 409 471 34,000  Level Chicago Center
Tue 07:13:54 PM 40.0608 -89.2453 220° Southwest 409 471 34,000  Level Kansas City Center
Tue 07:14:56 PM 39.9708 -89.3400 219° Southwest 412 474 34,000  Level Kansas City Center
Tue 07:15:58 PM 39.8817 -89.4339 219° Southwest 412 474 34,000  Level Kansas City Center
Tue 07:17:00 PM 39.7914 -89.5278 219° Southwest 413 475 34,000  Level Kansas City Center
Tue 07:18:02 PM 39.7042 -89.6183 219° Southwest 411 473 34,000  Level Kansas City Center
Tue 07:19:04 PM 39.5969 -89.7289 218° Southwest 411 473 34,000  Level Kansas City Center
Tue 07:20:06 PM 39.5089 -89.8214 219° Southwest 409 471 34,000  Level Kansas City Center
Tue 07:21:08 PM 39.4203 -89.9131 219° Southwest 408 470 34,000  Level Kansas City Center
Tue 07:22:10 PM 39.3308 -90.0044 218° Southwest 410 472 34,000  Level Kansas City Center
Tue 07:23:12 PM 39.2422 -90.0956 219° Southwest 410 472 34,000  Level Kansas City Center
Tue 07:24:13 PM 39.1539 -90.1861 218° Southwest 407 468 34,000 -244 Level Kansas City Center
Tue 07:25:15 PM 39.0472 -90.2944 218° Southwest 408 470 33,500 -677 Descending Kansas City Center
Tue 07:26:17 PM 38.9589 -90.3858 219° Southwest 410 472 32,600 -726 Descending Kansas City Center
Tue 07:27:19 PM 38.8706 -90.4769 219° Southwest 413 475 32,000 -290 Descending Kansas City Center
Tue 07:28:21 PM 38.7800 -90.5722 219° Southwest 416 479 32,000  Level Kansas City Center
Tue 07:29:23 PM 38.6803 -90.6914 223° Southwest 422 486 32,000  Level Kansas City Center
Tue 07:30:25 PM 38.5953 -90.7886 222° Southwest 417 480 32,000  Level Kansas City Center
Tue 07:31:27 PM 38.5097 -90.8881 222° Southwest 418 481 32,000  Level Kansas City Center
Tue 07:32:29 PM 38.4264 -90.9831 222° Southwest 413 475 32,000  Level Kansas City Center
Tue 07:33:31 PM 38.3419 -91.0789 222° Southwest 411 473 32,000  Level Kansas City Center
Tue 07:34:33 PM 38.2567 -91.1744 221° Southwest 410 472 32,000  Level Kansas City Center
Tue 07:35:35 PM 38.1619 -91.2817 222° Southwest 417 480 32,000  Level Kansas City Center
Tue 07:36:37 PM 38.0739 -91.3806 221° Southwest 421 484 32,000  Level Kansas City Center
Tue 07:37:39 PM 37.9683 -91.5008 222° Southwest 422 486 32,000  Level Kansas City Center
Tue 07:38:41 PM 37.8803 -91.5997 222° Southwest 420 483 32,000  Level Kansas City Center
Tue 07:39:43 PM 37.7933 -91.6981 222° Southwest 417 480 32,000  Level Kansas City Center
Tue 07:40:45 PM 37.7058 -91.7956 221° Southwest 416 479 32,000  Level Kansas City Center
Tue 07:41:47 PM 37.6189 -91.8933 222° Southwest 414 476 32,000  Level Kansas City Center
Tue 07:42:49 PM 37.5308 -91.9894 221° Southwest 414 476 32,000  Level Kansas City Center
Tue 07:43:51 PM 37.4442 -92.0869 222° Southwest 413 475 32,000  Level Kansas City Center
Tue 07:44:53 PM 37.3567 -92.1828 221° Southwest 414 476 32,000  Level Kansas City Center
Tue 07:45:55 PM 37.2706 -92.2761 221° Southwest 408 470 32,000  Level Kansas City Center
Tue 07:46:56 PM 37.1672 -92.3894 221° Southwest 409 471 32,000  Level Kansas City Center
Tue 07:47:58 PM 37.0814 -92.4833 221° Southwest 408 470 32,000  Level Kansas City Center
Tue 07:49:00 PM 36.9950 -92.5758 221° Southwest 407 468 32,000  Level Kansas City Center
Tue 07:50:02 PM 36.9092 -92.6681 221° Southwest 406 467 32,000  Level Kansas City Center
Tue 07:51:04 PM 36.8236 -92.7600 221° Southwest 405 466 32,000  Level Kansas City Center
Tue 07:52:06 PM 36.7375 -92.8517 220° Southwest 404 465 32,000  Level Kansas City Center
Tue 07:53:08 PM 36.6508 -92.9450 221° Southwest 407 468 32,000  Level Kansas City Center
Tue 07:54:09 PM 36.5608 -93.0425 221° Southwest 409 471 32,000  Level Kansas City Center
Tue 07:55:11 PM 36.4742 -93.1339 220° Southwest 409 471 32,000  Level Kansas City Center
Tue 07:56:13 PM 36.3889 -93.2275 221° Southwest 411 473 32,000  Level Kansas City Center
Tue 07:56:43 PM 36.3350 -93.2836 220° Southwest 412 474 32,000  Level Memphis Center
Tue 07:57:43 PM 36.2494 -93.3731 220° Southwest 412 474 32,000  Level Memphis Center
Tue 07:58:43 PM 36.1636 -93.4678 222° Southwest 412 474 32,000  Level Memphis Center
Tue 07:59:43 PM 36.0758 -93.5594 220° Southwest 417 480 32,000  Level Memphis Center
Tue 08:00:43 PM 35.9900 -93.6508 221° Southwest 412 474 32,000  Level Memphis Center
Tue 08:01:43 PM 35.9042 -93.7397 220° Southwest 412 474 32,000  Level Memphis Center
Tue 08:02:43 PM 35.8164 -93.8308 220° Southwest 412 474 32,000  Level Memphis Center
Tue 08:03:43 PM 35.7303 -93.9194 220° Southwest 412 474 32,000  Level Memphis Center
Tue 08:04:43 PM 35.6444 -94.0075 220° Southwest 412 474 32,000  Level Memphis Center
Tue 08:05:43 PM 35.5583 -94.0956 220° Southwest 412 474 32,000  Level Memphis Center
Tue 08:06:43 PM 35.4744 -94.1836 221° Southwest 412 474 32,000  Level Memphis Center
Tue 08:07:43 PM 35.3842 -94.2714 218° Southwest 407 468 32,000  Level Memphis Center
Tue 08:08:43 PM 35.2878 -94.3456 212° Southwest 413 475 32,000  Level Memphis Center
Tue 08:09:43 PM 35.1936 -94.4200 213° Southwest 413 475 32,000  Level Memphis Center
Tue 08:11:36 PM 35.0150 -94.5592 213° Southwest 416 479 32,000  Level Fort Worth Center
Tue 08:12:36 PM 34.9167 -94.6333 212° Southwest 416 479 32,000  Level Fort Worth Center
Tue 08:13:36 PM 34.8222 -94.7097 214° Southwest 421 484 32,000  Level Fort Worth Center
Tue 08:14:36 PM 34.7239 -94.7836 212° Southwest 414 476 32,000  Level Fort Worth Center
Tue 08:15:36 PM 34.6253 -94.8572 212° Southwest 420 483 32,000  Level Fort Worth Center
Tue 08:16:37 PM 34.5306 -94.9256 211° Southwest 420 483 32,000  Level Fort Worth Center
Tue 08:17:36 PM 34.4319 -95.0014 212° Southwest 426 490 32,000  Level Fort Worth Center
Tue 08:18:36 PM 34.3311 -95.0747 211° Southwest 426 490 32,000  Level Fort Worth Center
Tue 08:19:36 PM 34.2303 -95.1503 212° Southwest 426 490 32,000  Level Fort Worth Center
Tue 08:20:36 PM 34.1292 -95.2256 212° Southwest 432 497 32,000  Level Fort Worth Center
Tue 08:21:36 PM 34.0283 -95.3008 212° Southwest 427 491 32,000  Level Fort Worth Center
Tue 08:22:36 PM 33.9253 -95.3733 210° Southwest 427 491 32,000  Level Fort Worth Center
Tue 08:23:36 PM 33.8219 -95.4508 212° Southwest 422 486 32,000  Level Fort Worth Center
Tue 08:24:36 PM 33.7189 -95.5256 211° Southwest 434 499 32,000  Level Fort Worth Center
Tue 08:25:36 PM 33.6197 -95.5950 210° Southwest 434 499 32,000  Level Fort Worth Center
Tue 08:26:36 PM 33.5061 -95.6769 211° Southwest 429 494 32,000  Level Fort Worth Center
Tue 08:27:36 PM 33.4172 -95.7486 214° Southwest 429 494 32,000  Level Fort Worth Center
Tue 08:28:36 PM 33.2994 -95.8303 210° Southwest 434 499 32,000  Level Fort Worth Center
Tue 08:29:36 PM 33.2064 -95.8964 211° Southwest 434 499 32,000  Level Fort Worth Center
Tue 08:30:36 PM 33.1028 -95.9725 212° Southwest 439 505 32,000  Level Fort Worth Center
Tue 08:31:36 PM 32.9972 -96.0486 211° Southwest 439 505 32,000  Level Fort Worth Center
Tue 08:32:36 PM 32.8914 -96.1219 210° Southwest 439 505 32,000  Level Fort Worth Center
Tue 08:33:36 PM 32.7878 -96.1975 212° Southwest 439 505 32,000  Level Fort Worth Center
Tue 08:34:36 PM 32.6717 -96.2781 210° Southwest 439 505 32,000  Level Fort Worth Center
Tue 08:35:36 PM 32.5764 -96.3483 212° Southwest 444 511 32,000  Level Fort Worth Center
Tue 08:36:36 PM 32.4706 -96.4236 211° Southwest 444 511 32,000 -250 Level Fort Worth Center
Tue 08:37:36 PM 32.3644 -96.4983 211° Southwest 444 511 31,500 -700 Descending Fort Worth Center
Tue 08:38:36 PM 32.2564 -96.5756 211° Southwest 450 518 30,600 -1,400 Descending Fort Worth Center
Tue 08:39:36 PM 32.1483 -96.6503 210° Southwest 450 518 28,700 -1,950 Descending Fort Worth Center
Tue 08:40:36 PM 32.0444 -96.7272 212° Southwest 450 518 26,700 -2,000 Descending Fort Worth Center
Tue 08:41:36 PM 31.9447 -96.8014 212° Southwest 444 511 24,700 -2,000 Descending Fort Worth Center
Tue 08:42:36 PM 31.8447 -96.8656 209° Southwest 431 496 22,700 -1,875 Descending Fort Worth Center
Tue 08:43:44 PM 31.7269 -96.9469 210° Southwest 415 478 20,700 -1,246 Descending Houston Center
Tue 08:44:46 PM 31.6278 -97.0161 211° Southwest 411 473 20,000 -341 Descending Houston Center
Tue 08:45:47 PM 31.5275 -97.0833 210° Southwest 410 472 20,000  Level Houston Center
Tue 08:46:49 PM 31.4175 -97.1272 199° South 415 478 20,000 -780 Level Houston Center
Tue 08:47:50 PM 31.3078 -97.1703 199° South 412 474 18,400 -1,561 Descending Houston Center
Tue 08:48:52 PM 31.2003 -97.2122 198° South 404 465 16,800 -1,452 Descending Houston Center
Tue 08:49:54 PM 31.0794 -97.2597 199° South 392 451 15,400 -1,463 Descending Houston Center
Tue 08:50:55 PM 30.9792 -97.2997 199° South 386 444 13,800 -1,171 Descending Houston Center
Tue 08:51:57 PM 30.8825 -97.3364 198° South 381 438 13,000 -683 Descending Houston Center
Tue 08:52:58 PM 30.7908 -97.3731 199° South 354 407 12,400 -927 Descending Houston Center
Tue 08:54:00 PM 30.7214 -97.4281 214° Southwest 304 350 11,100 -1,366 Descending Houston Center
Tue 08:55:01 PM 30.6531 -97.4825 214° Southwest 297 342 9,600 -1,463 Descending Houston Center
Tue 08:56:03 PM 30.5867 -97.5353 214° Southwest 289 333 8,100 -1,548 Descending Houston Center
Tue 08:57:05 PM 30.5125 -97.5969 216° Southwest 281 323 6,400 -1,610 Descending Houston Center
Tue 08:58:06 PM 30.4528 -97.6492 217° Southwest 270 311 4,800 -1,268 Descending Houston Center
Tue 08:59:08 PM 30.3958 -97.6900 212° Southwest 251 289 3,800 -968 Descending Houston Center

Login

Don't have an account? Register now (free) for customized features, flight alerts, and more!